createdAt,value
2023-04-09T00:03:30.842Z,42.83
2023-04-09T00:08:33.759Z,41.38
2023-04-09T00:13:39.496Z,40.80
2023-04-09T00:18:44.157Z,45.83
2023-04-09T00:23:46.947Z,39.08
2023-04-09T00:28:49.938Z,37.67
2023-04-09T00:33:54.197Z,40.92
2023-04-09T00:38:56.948Z,44.80
2023-04-09T00:43:59.731Z,37.85
2023-04-09T00:49:04.778Z,41.72
2023-04-09T00:54:09.293Z,40.00
2023-04-09T00:59:12.764Z,38.60
2023-04-09T01:04:17.064Z,36.05
2023-04-09T01:09:24.737Z,34.88
2023-04-09T01:14:31.362Z,37.72
2023-04-09T01:19:45.770Z,28.70
2023-04-09T01:25:01.789Z,30.60
2023-04-09T01:30:15.415Z,33.33
2023-04-09T01:35:19.803Z,37.58
2023-04-09T01:40:22.697Z,36.20
2023-04-09T01:45:27.201Z,33.93
2023-04-09T01:50:30.785Z,38.95
2023-04-09T01:55:33.597Z,40.25
2023-04-09T02:00:40.361Z,41.35
2023-04-09T02:05:47.103Z,41.50
2023-04-09T02:10:53.702Z,41.42
2023-04-09T02:15:57.948Z,41.58
2023-04-09T02:21:01.506Z,40.47
2023-04-09T02:26:04.358Z,44.17
2023-04-09T02:31:08.552Z,42.45
2023-04-09T02:36:12.449Z,49.97
2023-04-09T02:41:15.392Z,48.75
2023-04-09T02:46:19.591Z,41.22
2023-04-09T02:51:22.660Z,44.60
2023-04-09T02:56:25.633Z,44.75
2023-04-09T03:01:29.987Z,45.65
2023-04-09T03:06:32.926Z,44.97
2023-04-09T03:11:35.752Z,43.63
2023-04-09T03:16:39.933Z,44.72
2023-04-09T03:21:42.780Z,51.60
2023-04-09T03:26:46.336Z,46.03
2023-04-09T03:31:53.088Z,46.77
2023-04-09T03:36:56.075Z,44.90
2023-04-09T03:42:02.141Z,51.17
2023-04-09T03:47:12.264Z,51.23
2023-04-09T03:52:15.703Z,46.70
2023-04-09T03:57:21.627Z,45.10
2023-04-09T04:02:32.005Z,52.92
2023-04-09T04:07:39.111Z,46.70
2023-04-09T04:12:46.933Z,52.27
2023-04-09T04:17:56.614Z,50.30
2023-04-09T04:23:11.607Z,56.28
2023-04-09T04:28:22.245Z,56.47
2023-04-09T04:33:26.790Z,52.85
2023-04-09T04:38:31.947Z,46.03
2023-04-09T04:43:38.094Z,44.80
2023-04-09T04:48:42.648Z,40.27
2023-04-09T04:53:46.555Z,50.42
2023-04-09T04:58:50.992Z,50.67
2023-04-09T05:03:57.554Z,49.05
2023-04-09T05:09:07.920Z,47.20
2023-04-09T05:14:21.007Z,57.05
2023-04-09T05:19:26.256Z,53.05
2023-04-09T05:24:35.160Z,52.78
2023-04-09T05:29:38.869Z,51.10
2023-04-09T05:34:45.485Z,46.63
2023-04-09T05:39:48.824Z,45.00
2023-04-09T05:44:51.861Z,50.00
2023-04-09T05:49:58.034Z,50.20
2023-04-09T05:55:00.963Z,48.55
2023-04-09T06:00:18.287Z,45.35
2023-04-09T06:05:23.449Z,40.97
2023-04-09T06:10:27.823Z,48.58
2023-04-09T06:15:30.810Z,44.13
2023-04-09T06:20:35.215Z,41.95
2023-04-09T06:25:38.195Z,44.55
2023-04-09T06:30:41.317Z,43.87
2023-04-09T06:35:45.603Z,40.92
2023-04-09T06:40:48.384Z,44.17
2023-04-09T06:45:51.484Z,45.63
2023-04-09T06:50:55.788Z,43.50
2023-04-09T06:55:58.710Z,40.60
2023-04-09T07:01:01.815Z,37.60
2023-04-09T07:06:06.305Z,37.47
2023-04-09T07:11:09.191Z,39.97
2023-04-09T07:16:12.039Z,41.75
2023-04-09T07:21:16.357Z,47.80
2023-04-09T07:26:19.195Z,40.33
2023-04-09T07:31:22.042Z,41.17
2023-04-09T07:36:26.673Z,42.90
2023-04-09T07:41:29.487Z,40.40
2023-04-09T07:46:32.369Z,46.67
2023-04-09T07:51:36.620Z,40.83
2023-04-09T07:56:39.383Z,42.72
2023-04-09T08:01:42.357Z,36.55
2023-04-09T08:06:50.008Z,36.38
2023-04-09T08:11:53.335Z,37.10
2023-04-09T08:16:56.417Z,42.70
2023-04-09T08:22:00.908Z,39.08
2023-04-09T08:27:04.636Z,34.10
2023-04-09T08:32:08.210Z,34.30
2023-04-09T08:37:12.503Z,31.42
2023-04-09T08:42:16.140Z,32.90
2023-04-09T08:47:19.353Z,38.20
2023-04-09T08:52:32.007Z,37.47
2023-04-09T08:57:38.736Z,32.42
2023-04-09T09:03:02.812Z,33.20
2023-04-09T09:08:08.456Z,31.15
2023-04-09T09:13:22.441Z,30.75
2023-04-09T09:18:39.387Z,29.05
2023-04-09T09:23:43.857Z,30.95
2023-04-09T09:28:48.171Z,39.55
2023-04-09T09:33:51.729Z,33.70
2023-04-09T09:38:57.303Z,33.63
2023-04-09T09:44:00.566Z,30.42
2023-04-09T09:49:03.443Z,31.15
2023-04-09T09:54:09.249Z,39.35
2023-04-09T09:59:17.188Z,34.40
2023-04-09T10:04:21.361Z,38.83
2023-04-09T10:09:28.427Z,33.88
2023-04-09T10:14:31.401Z,35.50
2023-04-09T10:19:38.385Z,36.58
2023-04-09T10:24:42.647Z,43.17
2023-04-09T10:29:46.310Z,40.05
2023-04-09T10:34:50.603Z,41.73
2023-04-09T10:39:56.335Z,37.08
2023-04-09T10:45:07.304Z,34.15
2023-04-09T10:50:17.787Z,35.55
2023-04-09T10:55:44.435Z,34.50
2023-04-09T11:00:48.861Z,35.87
2023-04-09T11:06:03.218Z,38.22
2023-04-09T11:11:07.461Z,36.23
2023-04-09T11:16:10.299Z,35.72
2023-04-09T11:21:13.517Z,32.50
2023-04-09T11:26:17.645Z,33.28
2023-04-09T11:31:20.518Z,37.47
2023-04-09T11:36:23.515Z,31.60
2023-04-09T11:41:38.106Z,32.28
2023-04-09T11:46:42.750Z,33.95
2023-04-09T11:51:45.616Z,36.17
2023-04-09T11:56:55.679Z,36.00
2023-04-09T12:01:58.990Z,29.25
2023-04-09T12:07:02.047Z,36.28
2023-04-09T12:12:11.236Z,32.63
2023-04-09T12:17:14.136Z,36.78
2023-04-09T12:22:17.004Z,32.13
2023-04-09T12:27:21.192Z,32.58
2023-04-09T12:32:24.057Z,31.80
2023-04-09T12:37:28.649Z,29.60
2023-04-09T12:42:32.809Z,32.17
2023-04-09T12:47:35.719Z,33.03
2023-04-09T12:52:38.617Z,32.67
2023-04-09T12:57:44.591Z,33.85
2023-04-09T13:02:47.663Z,36.38
2023-04-09T13:07:51.452Z,30.90
2023-04-09T13:12:55.669Z,33.97
2023-04-09T13:17:58.506Z,30.83
2023-04-09T13:23:01.381Z,34.85
2023-04-09T13:28:05.579Z,33.00
2023-04-09T13:33:08.305Z,32.08
2023-04-09T13:38:11.215Z,30.98
2023-04-09T13:43:15.501Z,31.87
2023-04-09T13:48:18.336Z,33.22
2023-04-09T13:53:23.756Z,35.43
2023-04-09T13:58:27.918Z,33.63
2023-04-09T14:03:30.921Z,30.25
2023-04-09T14:08:33.800Z,30.65
2023-04-09T14:13:37.984Z,30.30
2023-04-09T14:18:41.699Z,31.35
2023-04-09T14:23:44.581Z,32.50
2023-04-09T14:28:48.785Z,30.10
2023-04-09T14:33:51.730Z,29.43
2023-04-09T14:38:57.456Z,29.63
2023-04-09T14:44:02.060Z,27.90
2023-04-09T14:49:04.842Z,29.92
2023-04-09T14:54:07.749Z,26.20
2023-04-09T14:59:11.858Z,26.63
2023-04-09T15:04:15.035Z,27.87
2023-04-09T15:09:18.047Z,26.53
2023-04-09T15:14:23.730Z,23.30
2023-04-09T15:19:26.629Z,21.08
2023-04-09T15:24:29.515Z,19.42
2023-04-09T15:29:33.944Z,18.65
2023-04-09T15:34:36.784Z,19.40
2023-04-09T15:39:39.723Z,18.38
2023-04-09T15:44:44.666Z,22.95
2023-04-09T15:50:12.781Z,22.38
2023-04-09T15:55:16.047Z,21.67
2023-04-09T16:00:20.360Z,21.40
2023-04-09T16:05:23.369Z,23.50
2023-04-09T16:10:26.453Z,21.42
2023-04-09T16:15:31.115Z,20.83
2023-04-09T16:20:33.934Z,25.33
2023-04-09T16:25:37.384Z,24.08
2023-04-09T16:30:41.979Z,25.83
2023-04-09T16:35:44.902Z,23.00
2023-04-09T16:40:47.802Z,23.40
2023-04-09T16:45:52.568Z,24.08
2023-04-09T16:50:55.427Z,21.73
2023-04-09T16:55:58.241Z,26.67
2023-04-09T17:01:02.592Z,23.00
2023-04-09T17:06:05.998Z,27.23
2023-04-09T17:11:08.992Z,23.13
2023-04-09T17:16:14.327Z,25.27
2023-04-09T17:21:18.410Z,25.42
2023-04-09T17:26:21.370Z,22.13
2023-04-09T17:31:26.652Z,20.77
2023-04-09T17:36:29.704Z,25.10
2023-04-09T17:41:32.577Z,21.10
2023-04-09T17:46:36.814Z,20.43
2023-04-09T17:51:39.821Z,20.58
2023-04-09T17:56:42.709Z,22.10
2023-04-09T18:01:47.021Z,21.50
2023-04-09T18:06:49.961Z,20.52
2023-04-09T18:11:56.281Z,21.50
2023-04-09T18:17:01.154Z,23.40
2023-04-09T18:22:04.061Z,18.13
2023-04-09T18:27:07.013Z,17.70
2023-04-09T18:32:11.162Z,18.87
2023-04-09T18:37:14.399Z,21.10
2023-04-09T18:42:17.148Z,19.27
2023-04-09T18:47:21.362Z,21.50
2023-04-09T18:52:24.327Z,23.23
2023-04-09T18:57:27.340Z,21.25
2023-04-09T19:02:31.738Z,20.93
2023-04-09T19:07:34.912Z,20.40
2023-04-09T19:12:38.772Z,24.05
2023-04-09T19:17:43.098Z,21.75
2023-04-09T19:22:47.862Z,21.30
2023-04-09T19:27:53.539Z,23.03
2023-04-09T19:32:57.766Z,21.23
2023-04-09T19:38:01.602Z,21.97
2023-04-09T19:43:06.221Z,22.85
2023-04-09T19:48:10.639Z,23.38
2023-04-09T19:53:13.627Z,20.67
2023-04-09T19:58:16.562Z,21.98
2023-04-09T20:03:21.010Z,20.02
2023-04-09T20:08:23.997Z,19.73
2023-04-09T20:13:26.844Z,20.50
2023-04-09T20:18:31.520Z,17.50
2023-04-09T20:23:35.745Z,16.70
2023-04-09T20:28:38.591Z,22.23
2023-04-09T20:33:42.852Z,23.70
2023-04-09T20:38:45.849Z,19.50
2023-04-09T20:43:48.635Z,18.58
2023-04-09T20:48:53.086Z,17.80
2023-04-09T20:53:56.181Z,18.13
2023-04-09T20:58:59.473Z,17.27
2023-04-09T21:04:03.840Z,17.77
2023-04-09T21:09:06.843Z,17.92
2023-04-09T21:14:11.091Z,19.83
2023-04-09T21:19:15.504Z,18.03
2023-04-09T21:24:18.366Z,19.52
2023-04-09T21:29:21.906Z,20.35
2023-04-09T21:34:26.224Z,21.80
2023-04-09T21:39:29.886Z,22.38
2023-04-09T21:44:32.745Z,17.20
2023-04-09T21:49:40.177Z,19.70
2023-04-09T21:54:43.186Z,19.23
2023-04-09T21:59:46.049Z,23.73
2023-04-09T22:04:50.220Z,20.57
2023-04-09T22:09:55.268Z,20.80
2023-04-09T22:14:58.067Z,19.48
2023-04-09T22:20:02.671Z,20.05
2023-04-09T22:25:06.997Z,16.73
2023-04-09T22:30:10.296Z,18.55
2023-04-09T22:35:18.028Z,18.05
2023-04-09T22:40:20.895Z,18.07
2023-04-09T22:45:24.005Z,16.33
2023-04-09T22:50:28.985Z,17.95
2023-04-09T22:55:31.898Z,16.52
2023-04-09T23:00:34.893Z,16.63
2023-04-09T23:05:39.643Z,18.75
2023-04-09T23:10:42.515Z,17.70
2023-04-09T23:15:45.499Z,18.98
2023-04-09T23:20:49.668Z,17.30
2023-04-09T23:25:52.539Z,16.67
2023-04-09T23:30:55.788Z,21.37
2023-04-09T23:36:00.124Z,19.63
2023-04-09T23:41:25.361Z,19.67
2023-04-09T23:46:28.445Z,18.95
2023-04-09T23:51:32.724Z,18.13
2023-04-09T23:56:36.185Z,17.17
